Time;durP1;ratioP1;P1;durP2;ratioP2;P2;SDS_P1;SDS_P2;PMS_P1;PMS_P2;Temp;Humidity;BMP_temperature;BMP_pressure;BME280_temperature;BME280_humidity;BME280_pressure;Samples;Min_cycle;Max_cycle;Signal;HPM_P1;HPM_P2
2022/04/01 00:00:19;;;;;;;9.77;6.80;;;8.60;99.90;;;;;;7387845;19;20141;-80
2022/04/01 00:02:45;;;;;;;10.83;6.13;;;8.50;99.90;;;;;;7388284;19;20198;-81
2022/04/01 00:05:11;;;;;;;9.90;6.70;;;8.40;99.90;;;;;;7390690;19;20143;-79
2022/04/01 00:07:40;;;;;;;11.73;6.97;;;8.50;99.90;;;;;;7390424;19;20134;-78
2022/04/01 00:10:10;;;;;;;8.97;6.13;;;8.40;99.90;;;;;;7387523;19;20385;-78
2022/04/01 00:12:44;;;;;;;8.90;5.63;;;8.50;99.90;;;;;;7386828;19;20150;-80
2022/04/01 00:15:12;;;;;;;8.53;5.83;;;8.50;99.90;;;;;;7388556;19;20771;-79
2022/04/01 00:17:39;;;;;;;9.43;6.30;;;8.60;99.90;;;;;;7389470;19;20210;-79
2022/04/01 00:20:09;;;;;;;8.60;5.80;;;8.50;99.90;;;;;;7400695;19;20127;-81
2022/04/01 00:22:35;;;;;;;8.70;5.93;;;8.60;99.90;;;;;;7385925;19;20134;-81
2022/04/01 00:25:01;;;;;;;10.07;6.17;;;8.50;99.90;;;;;;7387289;19;20666;-78
2022/04/01 00:27:27;;;;;;;9.07;6.27;;;8.60;99.90;;;;;;7388183;19;20486;-78
2022/04/01 00:29:53;;;;;;;8.03;6.13;;;8.50;99.90;;;;;;7387823;19;20127;-78
2022/04/01 00:32:21;;;;;;;9.93;6.00;;;8.60;99.90;;;;;;7387274;19;20210;-81
2022/04/01 00:34:48;;;;;;;10.73;6.33;;;8.50;99.90;;;;;;7386615;19;20129;-78
2022/04/01 00:37:14;;;;;;;8.43;6.10;;;8.50;99.90;;;;;;7384684;19;20146;-79
2022/04/01 00:39:40;;;;;;;7.87;5.13;;;8.40;99.90;;;;;;7388571;19;20684;-80
2022/04/01 00:42:06;;;;;;;9.23;6.03;;;8.30;99.90;;;;;;7387301;19;20138;-79
2022/04/01 00:44:35;;;;;;;9.20;6.00;;;8.30;99.90;;;;;;7387270;19;20151;-79
2022/04/01 00:47:04;;;;;;;7.97;5.77;;;8.30;99.90;;;;;;7385741;19;20143;-79
2022/04/01 00:49:31;;;;;;;10.53;6.13;;;8.10;99.90;;;;;;7386529;19;20138;-79
2022/04/01 00:52:00;;;;;;;9.07;5.70;;;8.10;99.90;;;;;;7386976;19;20130;-80
2022/04/01 00:54:26;;;;;;;8.63;5.70;;;8.20;99.90;;;;;;7385356;19;20605;-80
2022/04/01 00:56:54;;;;;;;10.13;6.20;;;8.30;99.90;;;;;;7385493;19;20247;-78
2022/04/01 00:59:21;;;;;;;8.00;5.80;;;8.30;99.90;;;;;;7394928;19;20141;-79
2022/04/01 01:01:49;;;;;;;8.53;6.17;;;8.40;99.90;;;;;;7386479;19;20126;-77
2022/04/01 01:04:16;;;;;;;7.77;5.50;;;8.40;99.90;;;;;;7386327;19;20194;-80
2022/04/01 01:06:45;;;;;;;8.50;5.63;;;8.40;99.90;;;;;;7385342;19;20134;-80
2022/04/01 01:09:12;;;;;;;8.53;5.70;;;8.40;99.90;;;;;;7389895;19;20611;-77
2022/04/01 01:11:38;;;;;;;6.10;4.63;;;8.40;99.90;;;;;;7385365;19;20147;-80
2022/04/01 01:14:09;;;;;;;7.77;4.93;;;8.30;99.90;;;;;;7389597;19;20512;-80
2022/04/01 01:16:36;;;;;;;7.80;4.93;;;8.20;99.90;;;;;;7386756;19;20483;-79
2022/04/01 01:19:05;;;;;;;7.50;5.13;;;8.10;99.90;;;;;;7384999;19;20153;-77
2022/04/01 01:21:31;;;;;;;7.27;5.23;;;8.10;99.90;;;;;;7391388;19;20131;-78
2022/04/01 01:24:06;;;;;;;8.13;5.67;;;8.10;99.90;;;;;;7383972;19;20590;-78
2022/04/01 01:26:36;;;;;;;7.53;4.93;;;8.00;99.90;;;;;;7384179;19;20134;-77
2022/04/01 01:29:04;;;;;;;7.63;5.13;;;8.00;99.90;;;;;;7382944;19;20170;-78
2022/04/01 01:31:30;;;;;;;7.10;4.83;;;8.00;99.90;;;;;;7384369;19;20665;-79
2022/04/01 01:33:58;;;;;;;6.93;5.10;;;8.00;99.90;;;;;;7386225;19;20182;-78
2022/04/01 01:36:26;;;;;;;8.57;5.17;;;8.00;99.90;;;;;;7383610;19;20139;-80
2022/04/01 01:38:53;;;;;;;8.33;5.90;;;7.90;99.90;;;;;;7398662;19;20157;-77
2022/04/01 01:41:19;;;;;;;6.87;4.97;;;7.90;99.90;;;;;;7397543;19;20137;-77
2022/04/01 01:43:45;;;;;;;6.37;4.50;;;7.90;99.90;;;;;;7392974;19;20207;-79
2022/04/01 01:46:12;;;;;;;5.43;4.23;;;8.10;99.90;;;;;;7394522;19;20153;-79
2022/04/01 01:48:37;;;;;;;7.00;5.13;;;8.10;99.90;;;;;;7393352;19;20139;-79
2022/04/01 01:56:32;;;;;;;6.63;4.50;;;7.90;99.90;;;;;;7392160;19;20200;-78
2022/04/01 01:58:58;;;;;;;6.73;5.03;;;8.00;99.90;;;;;;7392331;19;20553;-78
2022/04/01 02:01:24;;;;;;;6.07;5.03;;;8.00;99.90;;;;;;7391608;19;20211;-78
2022/04/01 02:03:51;;;;;;;7.00;5.00;;;7.90;99.90;;;;;;7398847;19;20537;-78
2022/04/01 02:06:21;;;;;;;7.53;5.33;;;8.00;99.90;;;;;;7394110;19;20127;-80
2022/04/01 02:08:48;;;;;;;9.10;5.77;;;7.80;99.90;;;;;;7393765;19;20484;-77
2022/04/01 02:11:14;;;;;;;8.47;5.57;;;8.00;99.90;;;;;;7391183;19;20637;-78
2022/04/01 02:13:40;;;;;;;7.03;5.20;;;7.90;99.90;;;;;;7391860;19;20130;-79
2022/04/01 02:16:05;;;;;;;7.37;5.23;;;8.00;99.90;;;;;;7390997;19;20125;-79
2022/04/01 02:18:31;;;;;;;7.07;4.63;;;7.90;99.90;;;;;;7391432;19;20131;-77
2022/04/01 02:20:57;;;;;;;6.47;4.60;;;7.90;99.90;;;;;;7392694;19;20504;-78
2022/04/01 02:23:24;;;;;;;7.83;5.60;;;7.90;99.90;;;;;;7395611;19;20151;-79
2022/04/01 02:25:50;;;;;;;6.97;5.23;;;7.90;99.90;;;;;;7396612;19;20137;-79
2022/04/01 02:28:16;;;;;;;7.77;5.30;;;8.00;99.90;;;;;;7392391;19;20143;-78
2022/04/01 02:30:42;;;;;;;7.03;5.40;;;8.00;99.90;;;;;;7393108;19;20166;-79
2022/04/01 02:33:07;;;;;;;7.10;4.90;;;8.00;99.90;;;;;;7391885;19;20126;-77
2022/04/01 02:35:34;;;;;;;6.13;4.93;;;8.00;99.90;;;;;;7391176;19;20139;-77
2022/04/01 02:38:01;;;;;;;7.37;5.20;;;8.00;99.90;;;;;;7390003;19;20175;-77
2022/04/01 02:40:27;;;;;;;7.60;5.60;;;8.00;99.90;;;;;;7390611;19;20135;-79
2022/04/01 02:42:54;;;;;;;9.33;5.90;;;7.90;99.90;;;;;;7393578;19;20153;-78
2022/04/01 02:45:24;;;;;;;6.57;5.17;;;7.90;99.90;;;;;;7396677;19;20161;-77
2022/04/01 02:47:50;;;;;;;7.63;5.13;;;7.90;99.90;;;;;;7402204;19;20154;-78
2022/04/01 02:50:16;;;;;;;6.87;5.13;;;8.00;99.90;;;;;;7390094;19;20139;-78
2022/04/01 02:52:42;;;;;;;7.33;5.40;;;8.00;99.90;;;;;;7389925;19;20161;-76
2022/04/01 02:55:09;;;;;;;8.33;5.60;;;8.00;99.90;;;;;;7389906;19;20602;-77
2022/04/01 02:57:34;;;;;;;7.67;5.47;;;7.90;99.90;;;;;;7393153;19;20146;-79
2022/04/01 03:00:01;;;;;;;7.47;5.70;;;8.00;99.90;;;;;;7393851;19;20620;-77
2022/04/01 03:02:27;;;;;;;6.10;4.93;;;8.00;99.90;;;;;;7390386;19;20131;-78
2022/04/01 03:04:53;;;;;;;7.90;5.87;;;8.00;99.90;;;;;;7393494;19;20143;-77
2022/04/01 03:07:19;;;;;;;7.67;5.57;;;7.90;99.90;;;;;;7409279;19;20202;-76
2022/04/01 03:09:45;;;;;;;8.17;5.77;;;7.80;99.90;;;;;;7391025;19;20127;-77
2022/04/01 03:12:11;;;;;;;7.37;5.00;;;7.90;99.90;;;;;;7389124;19;20123;-77
2022/04/01 03:14:37;;;;;;;7.50;5.30;;;7.80;99.90;;;;;;7389306;19;20142;-77
2022/04/01 03:17:03;;;;;;;7.60;5.37;;;7.80;99.90;;;;;;7388918;19;20123;-77
2022/04/01 03:19:29;;;;;;;7.37;5.37;;;7.80;99.90;;;;;;7391265;19;20126;-77
2022/04/01 03:21:55;;;;;;;9.37;5.30;;;7.80;99.90;;;;;;7391627;19;20139;-76
2022/04/01 03:24:21;;;;;;;8.47;5.67;;;7.70;99.90;;;;;;7388993;19;20149;-76
2022/04/01 03:26:47;;;;;;;8.13;5.30;;;7.70;99.90;;;;;;7389664;19;20218;-78
2022/04/01 03:29:13;;;;;;;7.87;6.13;;;7.80;99.90;;;;;;7395077;19;20387;-77
2022/04/01 03:31:40;;;;;;;6.73;5.00;;;7.80;99.90;;;;;;7389846;19;20202;-77
2022/04/01 03:34:06;;;;;;;7.83;5.20;;;7.80;99.90;;;;;;7390043;19;20131;-76
2022/04/01 03:36:36;;;;;;;8.57;5.83;;;7.70;99.90;;;;;;7390366;19;20143;-76
2022/04/01 03:39:03;;;;;;;8.47;6.03;;;7.70;99.90;;;;;;7388419;19;20135;-77
2022/04/01 03:41:30;;;;;;;6.77;5.23;;;7.60;99.90;;;;;;7389116;19;20164;-76
2022/04/01 03:43:55;;;;;;;6.73;5.50;;;7.70;99.90;;;;;;7388118;19;20147;-78
2022/04/01 03:46:26;;;;;;;8.17;5.80;;;7.70;99.90;;;;;;7389359;19;20128;-76
2022/04/01 03:49:05;;;;;;;8.47;5.97;;;7.60;99.90;;;;;;7391071;19;20154;-77
2022/04/01 03:51:32;;;;;;;9.30;6.10;;;7.50;99.90;;;;;;7397746;19;20159;-77
2022/04/01 03:54:03;;;;;;;6.93;5.37;;;7.60;99.90;;;;;;7388946;19;20900;-78
2022/04/01 03:56:34;;;;;;;9.07;6.13;;;7.60;99.90;;;;;;7387443;19;20130;-76
2022/04/01 03:59:03;;;;;;;7.97;5.77;;;7.70;99.90;;;;;;7389102;19;20605;-78
2022/04/01 04:01:29;;;;;;;7.60;5.60;;;7.80;99.90;;;;;;7386117;19;20147;-76
2022/04/01 04:04:00;;;;;;;7.67;5.83;;;7.80;99.90;;;;;;7387019;19;20131;-76
2022/04/01 04:06:26;;;;;;;9.87;6.63;;;7.90;99.90;;;;;;7388115;19;20154;-77
2022/04/01 04:09:01;;;;;;;7.83;5.70;;;7.80;99.90;;;;;;7387520;19;20127;-76
2022/04/01 04:11:31;;;;;;;8.53;6.10;;;7.80;99.90;;;;;;7406197;19;20137;-77
2022/04/01 04:13:59;;;;;;;8.10;6.30;;;7.80;99.90;;;;;;7388248;19;20137;-76
2022/04/01 04:16:36;;;;;;;8.27;6.23;;;7.80;99.90;;;;;;7386679;19;20150;-78
2022/04/01 04:19:09;;;;;;;7.93;5.93;;;7.70;99.90;;;;;;7387434;19;20148;-77
2022/04/01 04:21:58;;;;;;;10.27;6.90;;;7.80;99.90;;;;;;7389509;19;20171;-77
2022/04/01 04:24:34;;;;;;;8.73;6.13;;;7.80;99.90;;;;;;7388854;19;20131;-77
2022/04/01 04:27:11;;;;;;;7.30;6.00;;;7.80;99.90;;;;;;7385715;19;20146;-79
2022/04/01 04:29:50;;;;;;;9.10;6.03;;;7.60;99.90;;;;;;7386376;19;20199;-78
2022/04/01 04:32:32;;;;;;;8.20;5.73;;;7.60;99.90;;;;;;7394401;19;20479;-77
2022/04/01 04:35:00;;;;;;;9.30;6.37;;;7.60;99.90;;;;;;7392786;19;20134;-78
2022/04/01 04:37:28;;;;;;;8.40;6.23;;;7.80;99.90;;;;;;7384427;19;20685;-77
2022/04/01 04:39:55;;;;;;;7.37;5.67;;;7.80;99.90;;;;;;7388170;19;20134;-76
2022/04/01 04:42:21;;;;;;;6.77;5.17;;;7.70;99.90;;;;;;7385047;19;20139;-76
2022/04/01 04:44:48;;;;;;;6.63;4.83;;;7.70;99.90;;;;;;7387186;19;20172;-77
2022/04/01 04:47:15;;;;;;;6.60;5.00;;;7.80;99.90;;;;;;7391798;19;20142;-77
2022/04/01 04:49:42;;;;;;;6.60;5.03;;;7.80;99.90;;;;;;7388698;19;20205;-78
2022/04/01 04:52:08;;;;;;;6.20;4.77;;;7.70;99.90;;;;;;7393686;19;20779;-77
2022/04/01 04:54:39;;;;;;;8.43;4.87;;;7.60;99.90;;;;;;7395465;19;20146;-78
2022/04/01 04:57:06;;;;;;;6.83;4.97;;;7.50;99.90;;;;;;7387289;19;20135;-78
2022/04/01 04:59:35;;;;;;;5.47;4.30;;;7.50;99.90;;;;;;7388669;19;20146;-77
2022/04/01 05:02:08;;;;;;;6.20;4.47;;;7.50;99.90;;;;;;7386630;19;20482;-76
2022/04/01 05:04:57;;;;;;;5.77;4.10;;;7.50;99.90;;;;;;7388267;19;20149;-77
2022/04/01 05:07:41;;;;;;;5.50;3.90;;;7.60;99.90;;;;;;7386251;19;20131;-77
2022/04/01 05:10:38;;;;;;;4.10;3.40;;;7.50;99.90;;;;;;7388888;19;20138;-80
2022/04/01 05:13:16;;;;;;;6.30;4.67;;;7.50;99.90;;;;;;7393679;19;20154;-77
2022/04/01 05:15:44;;;;;;;5.13;3.90;;;7.40;99.90;;;;;;7405737;19;20134;-80
2022/04/01 05:18:21;;;;;;;4.70;3.87;;;7.70;99.90;;;;;;7395304;19;20142;-77
2022/04/01 05:20:55;;;;;;;4.60;3.90;;;7.40;99.90;;;;;;7398657;19;20142;-80
2022/04/01 05:23:34;;;;;;;5.63;3.57;;;7.40;99.90;;;;;;7397178;19;20123;-83
2022/04/01 05:26:12;;;;;;;6.23;4.17;;;7.40;99.90;;;;;;7396531;19;20138;-78
2022/04/01 05:28:52;;;;;;;6.67;4.47;;;7.40;99.90;;;;;;7392813;19;20157;-77
2022/04/01 05:31:35;;;;;;;5.37;3.80;;;7.40;99.90;;;;;;7396260;19;20141;-80
2022/04/01 05:34:09;;;;;;;5.63;3.70;;;7.40;99.90;;;;;;7413455;19;20197;-78
2022/04/01 05:36:39;;;;;;;4.83;3.87;;;7.40;99.90;;;;;;7395713;19;20138;-78
2022/04/01 05:39:05;;;;;;;5.83;4.43;;;7.60;99.90;;;;;;7393588;19;20171;-78
2022/04/01 05:41:32;;;;;;;4.13;3.47;;;7.50;99.90;;;;;;7396004;19;20152;-80
2022/04/01 05:43:58;;;;;;;6.70;4.37;;;7.50;99.90;;;;;;7395355;19;20150;-81
2022/04/01 05:46:25;;;;;;;6.90;4.90;;;7.10;99.90;;;;;;7399580;19;20130;-79
2022/04/01 05:48:54;;;;;;;7.23;5.03;;;7.20;99.90;;;;;;7395711;19;20146;-78
2022/04/01 05:51:21;;;;;;;6.30;4.97;;;7.30;99.90;;;;;;7395413;19;20654;-82
2022/04/01 05:53:50;;;;;;;7.33;5.33;;;7.40;99.90;;;;;;7402161;19;20172;-82
2022/04/01 05:56:16;;;;;;;8.17;5.60;;;7.50;99.90;;;;;;7394282;19;20134;-78
2022/04/01 05:58:42;;;;;;;7.67;5.50;;;7.60;99.90;;;;;;7394296;19;20190;-78
2022/04/01 06:01:18;;;;;;;7.77;5.60;;;7.50;99.90;;;;;;7393328;19;20139;-78
2022/04/01 06:04:18;;;;;;;7.63;5.17;;;7.40;99.90;;;;;;7395236;19;20186;-78
2022/04/01 06:06:45;;;;;;;6.73;5.13;;;7.40;99.90;;;;;;7393571;19;20585;-81
2022/04/01 06:09:39;;;;;;;8.63;5.30;;;7.40;99.90;;;;;;7394028;19;20131;-80
2022/04/01 06:12:24;;;;;;;8.17;5.53;;;7.50;99.90;;;;;;7394312;19;20603;-79
2022/04/01 06:15:04;;;;;;;8.30;6.03;;;7.50;99.90;;;;;;7402486;19;20157;-81
2022/04/01 06:17:37;;;;;;;8.20;6.37;;;7.40;99.90;;;;;;7393177;19;20146;-80
2022/04/01 06:20:07;;;;;;;7.43;5.80;;;7.40;99.90;;;;;;7395279;19;20138;-83
2022/04/01 06:22:40;;;;;;;7.77;5.83;;;7.20;99.90;;;;;;7390581;19;20720;-80
2022/04/01 06:25:13;;;;;;;8.13;5.40;;;7.40;99.90;;;;;;7392427;19;20156;-79
2022/04/01 06:27:46;;;;;;;7.83;5.43;;;7.30;99.90;;;;;;7392844;19;20138;-79
2022/04/01 06:30:14;;;;;;;7.30;5.50;;;7.40;99.90;;;;;;7393452;19;20138;-78
2022/04/01 06:32:57;;;;;;;7.57;5.80;;;7.30;99.90;;;;;;7396279;19;20135;-84
2022/04/01 06:35:23;;;;;;;8.57;6.13;;;7.30;99.90;;;;;;7404317;19;20445;-83
2022/04/01 06:37:52;;;;;;;7.70;6.07;;;7.20;99.90;;;;;;7391304;19;20630;-83
2022/04/01 06:40:22;;;;;;;8.33;5.57;;;7.30;99.90;;;;;;7395211;19;20563;-83
2022/04/01 06:42:51;;;;;;;8.33;5.97;;;7.30;99.90;;;;;;7391959;19;20149;-78
2022/04/01 06:45:17;;;;;;;8.50;6.13;;;7.40;99.90;;;;;;7393850;19;20227;-80
2022/04/01 06:47:45;;;;;;;8.33;6.27;;;7.10;99.90;;;;;;7397213;19;20146;-80
2022/04/01 06:50:12;;;;;;;8.33;6.07;;;7.10;99.90;;;;;;7399926;19;20510;-80
2022/04/01 06:52:40;;;;;;;7.47;5.83;;;7.20;99.90;;;;;;7398607;19;20143;-84
2022/04/01 06:55:10;;;;;;;7.43;5.57;;;7.20;99.90;;;;;;7398808;19;20127;-79
2022/04/01 06:57:36;;;;;;;8.80;6.07;;;7.10;99.90;;;;;;7396725;19;20123;-79
2022/04/01 07:00:08;;;;;;;9.57;6.00;;;7.10;99.90;;;;;;7394244;19;20548;-81
2022/04/01 07:02:36;;;;;;;10.70;6.67;;;7.10;99.90;;;;;;7396791;19;21009;-84
2022/04/01 07:05:02;;;;;;;8.73;6.33;;;7.20;99.90;;;;;;7394136;19;20180;-80
2022/04/01 07:07:28;;;;;;;9.23;6.10;;;7.10;99.90;;;;;;7394254;19;20130;-84
2022/04/01 07:09:54;;;;;;;9.63;6.87;;;6.90;99.90;;;;;;7394841;19;20981;-81
2022/04/01 07:12:23;;;;;;;10.10;6.83;;;6.90;99.90;;;;;;7395888;19;20602;-85
2022/04/01 07:14:50;;;;;;;9.07;6.00;;;6.90;99.90;;;;;;7395454;19;20135;-85
2022/04/01 07:17:16;;;;;;;10.10;7.50;;;7.00;99.90;;;;;;7403146;19;20123;-83
2022/04/01 07:19:42;;;;;;;8.67;6.47;;;7.10;99.90;;;;;;7394307;19;20131;-80
2022/04/01 07:22:07;;;;;;;8.13;6.50;;;7.10;99.90;;;;;;7394103;19;20530;-80
2022/04/01 07:24:34;;;;;;;8.50;6.07;;;7.20;99.90;;;;;;7395137;19;20157;-82
2022/04/01 07:27:00;;;;;;;11.80;6.13;;;7.10;99.90;;;;;;7394200;19;20147;-81
2022/04/01 07:29:27;;;;;;;9.20;6.20;;;6.90;99.90;;;;;;7390984;19;20145;-84
2022/04/01 07:34:42;;;;;;;7.90;5.60;;;6.90;99.90;;;;;;7393916;19;20135;-82
2022/04/01 07:37:09;;;;;;;12.07;7.67;;;6.70;99.90;;;;;;7403428;19;20170;-80
2022/04/01 07:39:37;;;;;;;12.90;8.53;;;6.80;99.90;;;;;;7392711;19;20582;-84
2022/04/01 07:42:03;;;;;;;8.80;6.40;;;6.90;99.90;;;;;;7391379;19;20142;-85
2022/04/01 07:44:30;;;;;;;9.57;6.13;;;6.90;99.90;;;;;;7393853;19;20185;-81
2022/04/01 07:46:56;;;;;;;10.87;7.40;;;6.90;99.90;;;;;;7391212;19;20166;-84
2022/04/01 07:49:22;;;;;;;8.87;5.73;;;7.00;99.90;;;;;;7392044;19;20138;-84
2022/04/01 07:51:49;;;;;;;8.33;6.53;;;7.00;99.90;;;;;;7390868;19;20150;-80
2022/04/01 07:54:15;;;;;;;9.67;7.13;;;7.10;99.90;;;;;;7393306;19;20141;-79
2022/04/01 07:56:42;;;;;;;9.77;7.13;;;7.20;99.90;;;;;;7397264;19;20126;-82
2022/04/01 07:59:09;;;;;;;8.60;6.47;;;7.10;99.90;;;;;;7404299;19;20142;-80
2022/04/01 08:01:36;;;;;;;9.33;6.77;;;7.00;99.90;;;;;;7395919;19;20131;-84
2022/04/01 08:04:03;;;;;;;9.97;7.33;;;7.10;99.90;;;;;;7390045;19;20151;-83
2022/04/01 08:06:30;;;;;;;12.70;8.10;;;7.00;99.90;;;;;;7391764;19;20512;-82
2022/04/01 08:08:58;;;;;;;10.00;7.30;;;7.00;99.90;;;;;;7386928;19;20134;-83
2022/04/01 08:11:32;;;;;;;20.20;13.17;;;7.00;99.90;;;;;;7389297;19;20214;-85
2022/04/01 08:13:58;;;;;;;9.10;6.83;;;6.90;99.90;;;;;;7394372;19;20167;-80
2022/04/01 08:16:23;;;;;;;16.63;9.10;;;7.10;99.90;;;;;;7392949;19;20195;-85
2022/04/01 08:18:49;;;;;;;7.30;6.10;;;7.20;99.90;;;;;;7389403;19;20146;-79
2022/04/01 08:21:16;;;;;;;8.87;6.30;;;7.10;99.90;;;;;;7400105;19;20589;-83
2022/04/01 08:23:42;;;;;;;9.03;7.23;;;7.10;99.90;;;;;;7389700;19;20130;-86
2022/04/01 08:26:12;;;;;;;9.97;7.07;;;7.10;99.90;;;;;;7385291;19;20149;-80
2022/04/01 08:28:39;;;;;;;9.63;6.80;;;7.10;99.90;;;;;;7391523;19;20155;-85
2022/04/01 08:31:07;;;;;;;10.07;7.13;;;7.10;99.90;;;;;;7390543;19;20506;-82
2022/04/01 08:33:32;;;;;;;7.97;6.47;;;7.20;99.90;;;;;;7388657;19;20127;-84
2022/04/01 08:35:58;;;;;;;14.47;8.90;;;7.10;99.90;;;;;;7387482;19;20566;-82
2022/04/01 08:38:25;;;;;;;9.90;6.90;;;6.80;99.90;;;;;;7395762;19;20657;-88
2022/04/01 08:40:51;;;;;;;25.27;13.60;;;6.80;99.90;;;;;;7401093;19;20139;-81
2022/04/01 08:43:28;;;;;;;11.57;7.83;;;6.90;99.90;;;;;;7397321;19;20701;-86
2022/04/01 08:45:56;;;;;;;10.57;7.63;;;7.00;99.90;;;;;;7388930;19;20145;-81
2022/04/01 08:48:28;;;;;;;10.27;6.70;;;7.10;99.90;;;;;;7388899;19;20155;-87
2022/04/01 08:50:54;;;;;;;9.93;6.77;;;7.10;99.90;;;;;;7391802;19;20153;-84
2022/04/01 08:53:21;;;;;;;10.07;6.50;;;7.10;99.90;;;;;;7387912;19;20237;-85
2022/04/01 08:55:55;;;;;;;8.93;5.90;;;7.10;99.90;;;;;;7386459;19;20184;-80
2022/04/01 08:58:23;;;;;;;7.37;5.37;;;7.10;99.90;;;;;;7391458;19;20194;-84
2022/04/01 09:00:52;;;;;;;7.87;6.23;;;6.90;99.90;;;;;;7387276;19;20145;-83
2022/04/01 09:03:21;;;;;;;6.90;5.57;;;6.80;99.90;;;;;;7392234;19;20130;-83
2022/04/01 09:05:53;;;;;;;6.77;5.17;;;6.70;99.90;;;;;;7397283;19;20150;-80
2022/04/01 09:08:33;;;;;;;7.90;5.40;;;6.70;99.90;;;;;;7387969;19;20142;-79
2022/04/01 09:11:05;;;;;;;6.97;5.20;;;6.70;99.90;;;;;;7388686;19;20237;-80
2022/04/01 09:13:43;;;;;;;8.07;5.57;;;6.70;99.90;;;;;;7387365;19;20206;-80
2022/04/01 09:16:22;;;;;;;8.93;5.93;;;6.70;99.90;;;;;;7388428;19;20649;-80
2022/04/01 09:18:48;;;;;;;7.33;5.63;;;6.60;99.90;;;;;;7388496;19;20142;-81
2022/04/01 09:21:20;;;;;;;8.90;5.53;;;6.50;99.90;;;;;;7390648;19;20131;-79
2022/04/01 09:23:48;;;;;;;6.53;5.07;;;6.60;99.90;;;;;;7389689;19;20142;-82
2022/04/01 09:26:21;;;;;;;9.03;5.80;;;6.60;99.90;;;;;;7396210;19;20496;-84
2022/04/01 09:28:49;;;;;;;6.77;5.23;;;6.60;99.90;;;;;;7386896;19;20134;-81
2022/04/01 09:31:17;;;;;;;7.43;5.40;;;6.60;99.90;;;;;;7388316;19;20133;-79
2022/04/01 09:33:42;;;;;;;7.80;5.40;;;6.60;99.90;;;;;;7388059;19;20127;-80
2022/04/01 09:36:12;;;;;;;7.03;5.57;;;6.40;99.90;;;;;;7387246;19;20123;-81
2022/04/01 09:38:38;;;;;;;6.23;5.30;;;6.20;99.90;;;;;;7388178;19;20562;-79
2022/04/01 09:41:07;;;;;;;7.77;5.53;;;6.30;99.90;;;;;;7386394;19;20621;-81
2022/04/01 09:43:39;;;;;;;7.40;5.57;;;6.10;99.90;;;;;;7388525;19;20632;-85
2022/04/01 09:46:21;;;;;;;9.00;5.83;;;6.10;99.90;;;;;;7386709;19;20131;-81
2022/04/01 09:48:48;;;;;;;5.90;4.67;;;6.20;99.90;;;;;;7398704;19;20153;-80
2022/04/01 09:51:14;;;;;;;6.07;5.20;;;6.30;99.90;;;;;;7389733;19;20150;-86
2022/04/01 09:53:40;;;;;;;7.47;4.87;;;6.40;99.90;;;;;;7389431;19;20165;-85
2022/04/01 09:56:07;;;;;;;6.70;4.60;;;6.50;99.90;;;;;;7398773;19;20576;-85
2022/04/01 09:58:33;;;;;;;5.87;4.63;;;6.40;99.90;;;;;;7388786;19;20168;-80
2022/04/01 10:01:03;;;;;;;5.83;4.33;;;6.50;99.90;;;;;;7393930;19;20130;-80
2022/04/01 10:03:29;;;;;;;6.17;4.30;;;6.50;99.90;;;;;;7394946;19;20138;-81
2022/04/01 10:05:56;;;;;;;4.43;3.60;;;6.50;99.90;;;;;;7407645;19;20154;-82
2022/04/01 10:08:26;;;;;;;5.87;3.53;;;6.60;99.90;;;;;;7394772;19;20266;-82
2022/04/01 10:10:53;;;;;;;6.33;3.77;;;6.70;99.90;;;;;;7394098;19;20477;-81
2022/04/01 10:13:29;;;;;;;4.37;3.60;;;6.70;99.90;;;;;;7394552;19;20150;-84
2022/04/01 10:16:00;;;;;;;4.77;3.57;;;6.80;99.90;;;;;;7395031;19;20669;-82
2022/04/01 10:18:27;;;;;;;5.03;3.43;;;6.60;99.90;;;;;;7392915;19;20147;-81
2022/04/01 10:20:55;;;;;;;3.73;2.97;;;6.40;99.90;;;;;;7393790;19;20139;-84
2022/04/01 10:23:24;;;;;;;4.63;3.20;;;6.30;99.90;;;;;;7397899;19;20143;-80
2022/04/01 10:25:59;;;;;;;4.47;3.10;;;6.30;99.90;;;;;;7393116;19;20154;-78
2022/04/01 10:28:26;;;;;;;4.90;3.40;;;6.50;99.90;;;;;;7403603;19;20171;-85
2022/04/01 10:30:58;;;;;;;4.10;2.93;;;6.40;99.90;;;;;;7392902;19;20126;-87
2022/04/01 10:33:38;;;;;;;3.40;2.90;;;6.40;99.90;;;;;;7392349;19;20790;-82
2022/04/01 10:36:31;;;;;;;2.67;2.40;;;6.30;99.90;;;;;;7393093;19;20820;-81
2022/04/01 10:39:06;;;;;;;3.90;2.80;;;6.30;99.90;;;;;;7395884;19;20493;-85
2022/04/01 10:41:32;;;;;;;2.47;2.03;;;6.30;99.90;;;;;;7393033;19;20137;-82
2022/04/01 10:44:00;;;;;;;2.90;2.17;;;6.30;99.90;;;;;;7393425;19;20168;-82
2022/04/01 10:46:27;;;;;;;3.07;2.47;;;6.40;99.90;;;;;;7400150;19;20158;-79
2022/04/01 10:52:23;;;;;;;2.10;1.90;;;6.50;99.90;;;;;;7396394;19;20166;-81
2022/04/01 10:55:06;;;;;;;2.43;2.13;;;6.60;99.90;;;;;;7392558;19;20138;-83
2022/04/01 10:57:39;;;;;;;3.80;3.27;;;6.50;99.90;;;;;;7397465;19;20195;-85
2022/04/01 11:00:13;;;;;;;2.37;1.80;;;6.70;99.90;;;;;;7398051;19;20134;-81
2022/04/01 11:02:40;;;;;;;2.03;1.60;;;6.70;99.90;;;;;;7389328;19;20146;-84
2022/04/01 11:05:31;;;;;;;2.13;1.87;;;6.50;99.90;;;;;;7391217;19;20506;-85
2022/04/01 11:08:14;;;;;;;2.97;2.30;;;6.30;99.90;;;;;;7398396;19;20176;-85
2022/04/01 11:10:40;;;;;;;1.70;1.53;;;6.20;99.90;;;;;;7391475;19;20134;-87
2022/04/01 11:13:29;;;;;;;3.27;1.90;;;6.00;99.90;;;;;;7391224;19;20142;-81
2022/04/01 11:16:34;;;;;;;2.20;1.83;;;6.10;99.90;;;;;;7392887;19;20123;-88
2022/04/01 11:19:15;;;;;;;2.67;2.03;;;6.30;99.90;;;;;;7391997;19;20135;-85
2022/04/01 11:21:42;;;;;;;2.17;1.90;;;6.50;99.90;;;;;;7393464;19;20633;-80
2022/04/01 11:24:29;;;;;;;3.10;1.90;;;6.30;99.90;;;;;;7393695;19;20131;-81
2022/04/01 11:27:01;;;;;;;2.90;2.40;;;6.20;99.90;;;;;;7398816;19;20147;-85
2022/04/01 11:29:27;;;;;;;3.50;2.13;;;6.20;99.90;;;;;;7389585;19;20196;-80
2022/04/01 11:32:03;;;;;;;2.37;2.10;;;6.10;99.90;;;;;;7389511;19;20126;-81
2022/04/01 11:34:29;;;;;;;3.93;2.60;;;5.90;99.90;;;;;;7395157;19;20127;-86
2022/04/01 11:37:01;;;;;;;8.13;5.07;;;6.00;99.90;;;;;;7392050;19;20182;-84
2022/04/01 11:39:28;;;;;;;3.43;2.30;;;6.10;99.90;;;;;;7394706;19;20134;-85
2022/04/01 11:41:54;;;;;;;3.67;2.80;;;6.20;99.90;;;;;;7391365;19;20131;-83
2022/04/01 11:44:21;;;;;;;2.77;1.90;;;6.20;99.90;;;;;;7390412;19;20142;-80
2022/04/01 11:46:52;;;;;;;2.00;1.80;;;6.30;99.90;;;;;;7389897;19;20157;-85
2022/04/01 11:49:18;;;;;;;2.20;2.00;;;6.20;99.90;;;;;;7394221;19;20147;-80
2022/04/01 11:51:44;;;;;;;2.53;2.07;;;6.30;99.90;;;;;;7402972;19;20138;-80
2022/04/01 11:54:11;;;;;;;2.30;2.00;;;6.30;99.90;;;;;;7391024;19;20126;-85
2022/04/01 11:56:37;;;;;;;2.63;2.37;;;6.40;99.90;;;;;;7387928;19;20562;-81
2022/04/01 11:59:05;;;;;;;3.10;2.43;;;6.60;99.90;;;;;;7390361;19;20142;-85
2022/04/01 12:01:54;;;;;;;2.10;1.80;;;6.50;99.90;;;;;;7388149;19;20150;-81
2022/04/01 12:04:33;;;;;;;4.60;2.37;;;6.50;99.90;;;;;;7391681;19;20578;-80
2022/04/01 12:09:58;;;;;;;2.53;1.70;;;6.30;99.90;;;;;;7390350;19;20142;-86
2022/04/01 12:12:25;;;;;;;2.53;2.20;;;6.40;99.90;;;;;;7409480;19;20164;-85
2022/04/01 12:14:55;;;;;;;2.77;2.47;;;6.40;99.90;;;;;;7387838;19;20139;-81
2022/04/01 12:17:21;;;;;;;3.77;2.43;;;6.40;99.90;;;;;;7388458;19;20141;-80
2022/04/01 12:19:48;;;;;;;3.20;2.90;;;6.20;99.90;;;;;;7387776;19;20193;-83
2022/04/01 12:22:13;;;;;;;3.47;2.70;;;6.00;99.90;;;;;;7392012;19;20151;-81
2022/04/01 12:24:42;;;;;;;4.40;3.20;;;5.90;99.90;;;;;;7389595;19;20253;-80
2022/04/01 12:27:09;;;;;;;8.57;2.97;;;6.10;99.90;;;;;;7387328;19;20594;-86
2022/04/01 12:29:36;;;;;;;3.07;2.73;;;6.20;99.90;;;;;;7386055;19;20147;-79
2022/04/01 12:32:05;;;;;;;5.83;3.27;;;6.20;99.90;;;;;;7387697;19;20155;-84
2022/04/01 12:34:32;;;;;;;3.47;2.83;;;6.20;99.90;;;;;;7394914;19;20146;-85
2022/04/01 12:37:04;;;;;;;3.80;3.30;;;6.30;99.90;;;;;;7388472;19;20142;-81
2022/04/01 12:39:35;;;;;;;3.43;3.13;;;6.40;99.90;;;;;;7387636;19;20148;-79
2022/04/01 12:42:09;;;;;;;3.80;3.13;;;6.30;99.90;;;;;;7385345;19;20137;-85
2022/04/01 12:44:41;;;;;;;4.17;3.20;;;6.30;99.90;;;;;;7386024;19;20150;-81
2022/04/01 12:47:25;;;;;;;9.57;5.10;;;6.30;99.90;;;;;;7387069;19;20161;-86
2022/04/01 12:49:51;;;;;;;4.37;3.70;;;6.40;99.90;;;;;;7388101;19;20146;-84
2022/04/01 12:52:19;;;;;;;4.40;3.60;;;6.40;99.90;;;;;;7386492;19;20497;-80
2022/04/01 12:54:53;;;;;;;4.00;3.10;;;6.20;99.90;;;;;;7387161;19;20157;-84
2022/04/01 12:57:24;;;;;;;4.30;3.30;;;6.20;99.90;;;;;;7394457;19;20137;-86
2022/04/01 12:59:56;;;;;;;4.47;3.50;;;6.20;99.90;;;;;;7387354;19;20130;-85
2022/04/01 13:02:28;;;;;;;4.13;3.40;;;6.30;99.90;;;;;;7386136;19;20623;-81
2022/04/01 13:04:59;;;;;;;4.73;3.63;;;6.30;99.90;;;;;;7386131;19;20139;-83
2022/04/01 13:07:53;;;;;;;4.33;3.37;;;6.30;99.90;;;;;;7389526;19;20150;-79
2022/04/01 13:10:21;;;;;;;3.97;3.40;;;6.10;99.90;;;;;;7383105;19;20146;-78
2022/04/01 13:12:55;;;;;;;4.70;3.87;;;5.90;99.90;;;;;;7386095;19;20504;-78
2022/04/01 13:15:27;;;;;;;5.10;3.60;;;6.00;99.90;;;;;;7386556;19;20249;-84
2022/04/01 13:17:57;;;;;;;4.70;3.83;;;5.90;99.90;;;;;;7387243;19;20143;-80
2022/04/01 13:20:39;;;;;;;5.47;3.77;;;5.80;99.90;;;;;;7389218;19;20135;-85
2022/04/01 13:23:06;;;;;;;5.97;4.20;;;5.90;99.90;;;;;;7385732;19;20126;-83